createdAt,value
2018-06-04T00:00:31.321Z,100186
2018-06-04T00:03:00.903Z,100187
2018-06-04T00:05:29.733Z,100177
2018-06-04T00:07:58.581Z,100174
2018-06-04T00:10:27.418Z,100173
2018-06-04T00:12:56.260Z,100173
2018-06-04T00:15:25.083Z,100172
2018-06-04T00:17:53.922Z,100170
2018-06-04T00:20:22.757Z,100177
2018-06-04T00:22:51.595Z,100172
2018-06-04T00:25:20.427Z,100171
2018-06-04T00:27:50.006Z,100167
2018-06-04T00:30:18.859Z,100161
2018-06-04T00:32:47.702Z,100155
2018-06-04T00:35:16.555Z,100154
2018-06-04T00:37:45.393Z,100154
2018-06-04T00:40:14.963Z,100152
2018-06-04T00:42:43.802Z,100159
2018-06-04T00:45:12.706Z,100156
2018-06-04T00:47:41.476Z,100146
2018-06-04T00:50:10.323Z,100153
2018-06-04T00:52:39.163Z,100149
2018-06-04T00:55:07.998Z,100159
2018-06-04T00:57:36.844Z,100154
2018-06-04T01:00:05.683Z,100157
2018-06-04T01:02:35.248Z,100147
2018-06-04T01:05:04.094Z,100145
2018-06-04T01:07:32.933Z,100158
2018-06-04T01:10:01.775Z,100154
2018-06-04T01:12:30.626Z,100149
2018-06-04T01:14:59.463Z,100149
2018-06-04T01:17:28.311Z,100148
2018-06-04T01:19:57.145Z,100149
2018-06-04T01:22:25.993Z,100146
2018-06-04T01:24:54.839Z,100144
2018-06-04T01:27:23.684Z,100136
2018-06-04T01:29:53.278Z,100136
2018-06-04T01:32:22.121Z,100134
2018-06-04T01:34:51.001Z,100127
2018-06-04T01:37:20.565Z,100125
2018-06-04T01:39:49.400Z,100123
2018-06-04T01:42:18.251Z,100120
2018-06-04T01:44:47.098Z,100124
2018-06-04T01:47:15.952Z,100117
2018-06-04T01:49:44.792Z,100122
2018-06-04T01:52:13.631Z,100112
2018-06-04T01:54:42.466Z,100123
2018-06-04T01:57:11.315Z,100118
2018-06-04T01:59:40.152Z,100112
2018-06-04T02:02:08.992Z,100113
2018-06-04T02:04:37.837Z,100105
2018-06-04T02:07:06.677Z,100103
2018-06-04T02:09:35.527Z,100109
2018-06-04T02:12:04.368Z,100109
2018-06-04T02:14:33.204Z,100115
2018-06-04T02:17:02.076Z,100100
2018-06-04T02:19:30.924Z,100100
2018-06-04T02:21:59.776Z,100104
2018-06-04T02:24:28.633Z,100105
2018-06-04T02:26:57.487Z,100094
2018-06-04T02:29:26.330Z,100095
2018-06-04T02:31:55.192Z,100093
2018-06-04T02:34:24.039Z,100086
2018-06-04T02:36:52.878Z,100089
2018-06-04T02:39:21.726Z,100087
2018-06-04T02:41:51.319Z,100084
2018-06-04T02:44:20.908Z,100090
2018-06-04T02:46:49.759Z,100090
2018-06-04T02:49:18.596Z,100089
2018-06-04T02:51:47.458Z,100081
2018-06-04T02:54:16.297Z,100079
2018-06-04T02:56:45.177Z,100081
2018-06-04T02:59:13.984Z,100080
2018-06-04T03:01:42.833Z,100080
2018-06-04T03:04:11.685Z,100086
2018-06-04T03:06:40.534Z,100085
2018-06-04T03:09:10.388Z,100085
2018-06-04T03:11:39.237Z,100088
2018-06-04T03:14:08.819Z,100088
2018-06-04T03:16:37.678Z,100089
2018-06-04T03:19:06.532Z,100091
2018-06-04T03:21:35.374Z,100090
2018-06-04T03:24:04.212Z,100093
2018-06-04T03:26:33.062Z,100079
2018-06-04T03:29:01.909Z,100083
2018-06-04T03:31:30.746Z,100084
2018-06-04T03:33:59.603Z,100092
2018-06-04T03:36:28.437Z,100082
2018-06-04T03:38:58.018Z,100086
2018-06-04T03:41:26.853Z,100108
2018-06-04T03:43:55.692Z,100082
2018-06-04T03:46:24.540Z,100088
2018-06-04T03:48:53.385Z,100084
2018-06-04T03:51:22.238Z,100086
2018-06-04T03:53:51.080Z,100088
2018-06-04T03:56:19.935Z,100083
2018-06-04T03:58:48.772Z,100087
2018-06-04T04:01:17.620Z,100089
2018-06-04T04:03:46.452Z,100085
2018-06-04T04:06:15.298Z,100091
2018-06-04T04:08:44.135Z,100097
2018-06-04T04:11:12.974Z,100092
2018-06-04T04:13:41.808Z,100110
2018-06-04T04:16:10.654Z,100097
2018-06-04T04:18:39.493Z,100092
2018-06-04T04:21:08.333Z,100099
2018-06-04T04:23:37.168Z,100095
2018-06-04T04:26:06.015Z,100095
2018-06-04T04:28:34.854Z,100096
2018-06-04T04:31:03.696Z,100102
2018-06-04T04:33:32.538Z,100093
2018-06-04T04:36:01.377Z,100102
2018-06-04T04:38:30.232Z,100097
2018-06-04T04:40:59.073Z,100099
2018-06-04T04:43:28.655Z,100104
2018-06-04T04:45:57.505Z,100109
2018-06-04T04:48:26.354Z,100111
2018-06-04T04:50:55.944Z,100112
2018-06-04T04:53:24.789Z,100111
2018-06-04T04:55:53.738Z,100111
2018-06-04T04:58:22.577Z,100117
2018-06-04T05:00:51.423Z,100114
2018-06-04T05:03:20.276Z,100117
2018-06-04T05:05:49.160Z,100116
2018-06-04T05:08:17.964Z,100109
2018-06-04T05:10:46.795Z,100114
2018-06-04T05:13:15.643Z,100110
2018-06-04T05:15:44.501Z,100113
2018-06-04T05:18:13.326Z,100116
2018-06-04T05:20:42.917Z,100113
2018-06-04T05:23:11.772Z,100108
2018-06-04T05:25:40.617Z,100110
2018-06-04T05:28:09.461Z,100109
2018-06-04T05:30:38.299Z,100112
2018-06-04T05:33:07.891Z,100112
2018-06-04T05:35:36.732Z,100103
2018-06-04T05:38:05.585Z,100108
2018-06-04T05:40:34.439Z,100111
2018-06-04T05:43:03.272Z,100104
2018-06-04T05:45:32.866Z,100101
2018-06-04T05:48:01.746Z,100105
2018-06-04T05:50:30.599Z,100103
2018-06-04T05:52:59.449Z,100106
2018-06-04T05:55:29.037Z,100102
2018-06-04T05:57:57.913Z,100098
2018-06-04T06:00:26.721Z,100106
2018-06-04T06:02:55.571Z,100105
2018-06-04T06:05:24.408Z,100102
2018-06-04T06:07:53.997Z,100100
2018-06-04T06:10:22.863Z,100098
2018-06-04T06:12:51.698Z,100105
2018-06-04T06:15:21.294Z,100092
2018-06-04T06:17:50.151Z,100091
2018-06-04T06:20:18.996Z,100085
2018-06-04T06:22:47.857Z,100077
2018-06-04T06:25:16.695Z,100077
2018-06-04T06:27:45.535Z,100078
2018-06-04T06:30:14.376Z,100076
2018-06-04T06:32:43.245Z,100067
2018-06-04T06:35:12.093Z,100066
2018-06-04T06:37:41.001Z,100066
2018-06-04T06:40:09.790Z,100066
2018-06-04T06:42:38.626Z,100060
2018-06-04T06:45:07.460Z,100058
2018-06-04T06:47:36.897Z,100060
2018-06-04T06:50:05.803Z,100062
2018-06-04T06:52:35.340Z,100065
2018-06-04T06:55:04.182Z,100067
2018-06-04T06:57:33.038Z,100059
2018-06-04T07:00:02.631Z,100050
2018-06-04T07:02:31.481Z,100061
2018-06-04T07:05:00.331Z,100040
2018-06-04T07:07:29.209Z,100041
2018-06-04T07:09:58.038Z,100040
2018-06-04T07:12:26.889Z,100042
2018-06-04T07:14:55.740Z,100043
2018-06-04T07:17:24.588Z,100045
2018-06-04T07:19:53.435Z,100050
2018-06-04T07:22:22.285Z,100048
2018-06-04T07:24:51.125Z,100048
2018-06-04T07:27:19.976Z,100057
2018-06-04T07:29:48.825Z,100048
2018-06-04T07:32:18.407Z,100052
2018-06-04T07:34:47.307Z,100056
2018-06-04T07:37:16.115Z,100045
2018-06-04T07:39:45.710Z,100046
2018-06-04T07:42:14.557Z,100035
2018-06-04T07:44:43.590Z,100033
2018-06-04T07:47:12.445Z,100034
2018-06-04T07:49:41.300Z,100025
2018-06-04T07:52:10.157Z,100029
2018-06-04T07:54:39.756Z,100037
2018-06-04T07:57:08.617Z,100029
2018-06-04T07:59:37.467Z,100035
2018-06-04T08:02:06.307Z,100028
2018-06-04T08:04:35.159Z,100030
2018-06-04T08:07:04.023Z,100029
2018-06-04T08:09:32.864Z,100024
2018-06-04T08:12:01.708Z,100021
2018-06-04T08:14:31.297Z,100019
2018-06-04T08:17:00.136Z,100025
2018-06-04T08:19:28.978Z,100022
2018-06-04T08:21:57.839Z,100028
2018-06-04T08:24:26.688Z,100024
2018-06-04T08:26:55.526Z,100025
2018-06-04T08:29:24.379Z,100024
2018-06-04T08:31:53.221Z,100023
2018-06-04T08:34:22.072Z,100020
2018-06-04T08:36:50.923Z,100015
2018-06-04T08:39:19.760Z,100014
2018-06-04T08:41:48.599Z,100016
2018-06-04T08:44:17.440Z,100018
2018-06-04T08:46:46.287Z,100020
2018-06-04T08:49:15.126Z,100024
2018-06-04T08:51:43.963Z,100026
2018-06-04T08:54:12.834Z,100025
2018-06-04T08:56:42.410Z,100024
2018-06-04T08:59:11.262Z,100021
2018-06-04T09:01:40.108Z,100020
2018-06-04T09:04:09.695Z,100007
2018-06-04T09:06:38.542Z,100016
2018-06-04T09:09:07.392Z,100013
2018-06-04T09:11:36.243Z,100010
2018-06-04T09:14:05.090Z,100007
2018-06-04T09:16:33.937Z,100013
2018-06-04T09:19:02.772Z,100025
2018-06-04T09:21:31.612Z,100012
2018-06-04T09:24:00.473Z,100015
2018-06-04T09:26:29.311Z,100007
2018-06-04T09:28:58.166Z,100010
2018-06-04T09:31:27.014Z,100007
2018-06-04T09:33:56.600Z,100010
2018-06-04T09:36:25.587Z,100007
2018-06-04T09:38:55.186Z,100010
2018-06-04T09:41:24.071Z,100008
2018-06-04T09:43:52.884Z,100000
2018-06-04T09:46:22.478Z,100005
2018-06-04T09:48:52.072Z,100007
2018-06-04T09:51:20.926Z,100011
2018-06-04T09:53:49.774Z,100005
2018-06-04T09:56:18.615Z,100001
2018-06-04T09:58:47.461Z,100000
2018-06-04T10:01:16.314Z,99998
2018-06-04T10:03:45.161Z,100007
2018-06-04T10:06:14.168Z,100003
2018-06-04T10:08:42.994Z,100001
2018-06-04T10:11:11.834Z,100001
2018-06-04T10:13:40.667Z,99996
2018-06-04T10:16:09.498Z,99997
2018-06-04T10:18:38.333Z,99988
2018-06-04T10:21:07.174Z,99985
2018-06-04T10:23:36.006Z,99990
2018-06-04T10:26:04.832Z,99986
2018-06-04T10:28:33.674Z,99985
2018-06-04T10:31:02.507Z,99977
2018-06-04T10:33:31.383Z,99974
2018-06-04T10:36:00.221Z,99968
2018-06-04T10:38:29.052Z,99974
2018-06-04T10:40:57.882Z,99976
2018-06-04T10:43:27.457Z,99976
2018-06-04T10:45:56.281Z,99975
2018-06-04T10:48:25.124Z,99972
2018-06-04T10:50:53.959Z,99970
2018-06-04T10:53:23.038Z,99965
2018-06-04T10:55:52.475Z,99968
2018-06-04T10:58:21.317Z,99958
2018-06-04T11:00:50.178Z,99957
2018-06-04T11:03:19.022Z,99947
2018-06-04T11:05:47.851Z,99947
2018-06-04T11:08:16.689Z,99942
2018-06-04T11:10:46.269Z,99945
2018-06-04T11:13:15.117Z,99945
2018-06-04T11:15:43.966Z,99946
2018-06-04T11:18:13.546Z,99942
2018-06-04T11:20:42.400Z,99936
2018-06-04T11:23:11.457Z,99938
2018-06-04T11:25:40.325Z,99964
2018-06-04T11:28:09.135Z,99924
2018-06-04T11:30:38.721Z,99930
2018-06-04T11:33:07.549Z,99931
2018-06-04T11:35:36.387Z,99921
2018-06-04T11:38:05.225Z,99924
2018-06-04T11:40:34.059Z,99927
2018-06-04T11:43:02.896Z,99925
2018-06-04T11:45:31.736Z,99925
2018-06-04T11:48:00.574Z,99922
2018-06-04T11:50:29.404Z,99924
2018-06-04T11:52:58.249Z,99912
2018-06-04T11:55:27.152Z,99915
2018-06-04T11:57:55.961Z,99911
2018-06-04T12:00:24.794Z,99907
2018-06-04T12:02:53.623Z,99916
2018-06-04T12:05:22.469Z,99905
2018-06-04T12:07:51.304Z,99908
2018-06-04T12:10:20.133Z,99909
2018-06-04T12:12:48.966Z,99908
2018-06-04T12:15:18.560Z,99903
2018-06-04T12:17:48.148Z,99899
2018-06-04T12:20:16.976Z,99893
2018-06-04T12:22:45.818Z,99883
2018-06-04T12:25:14.650Z,99887
2018-06-04T12:27:43.483Z,99891
2018-06-04T12:30:12.312Z,99887
2018-06-04T12:32:41.895Z,99884
2018-06-04T12:35:11.319Z,99879
2018-06-04T12:37:40.949Z,99888
2018-06-04T12:40:10.489Z,99882
2018-06-04T12:42:39.318Z,99883
2018-06-04T12:45:08.905Z,99875
2018-06-04T12:47:37.863Z,99870
2018-06-04T12:50:06.633Z,99874
2018-06-04T12:52:35.476Z,99874
2018-06-04T12:55:04.368Z,99874
2018-06-04T12:57:33.194Z,99870
2018-06-04T13:00:02.063Z,99864
2018-06-04T13:02:31.648Z,99869
2018-06-04T13:05:00.489Z,99863
2018-06-04T13:07:29.326Z,99866
2018-06-04T13:09:58.161Z,99853
2018-06-04T13:12:27.005Z,99851
2018-06-04T13:14:55.848Z,99861
2018-06-04T13:17:24.690Z,99856
2018-06-04T13:19:53.522Z,99860
2018-06-04T13:22:22.370Z,99855
2018-06-04T13:24:51.236Z,99850
2018-06-04T13:27:20.061Z,99842
2018-06-04T13:29:48.905Z,99840
2018-06-04T13:32:17.735Z,99840
2018-06-04T13:34:47.309Z,99834
2018-06-04T13:37:16.149Z,99831
2018-06-04T13:39:44.990Z,99829
2018-06-04T13:42:13.837Z,99821
2018-06-04T13:44:42.681Z,99821
2018-06-04T13:47:11.523Z,99820
2018-06-04T13:49:40.366Z,99821
2018-06-04T13:52:09.191Z,99813
2018-06-04T13:54:38.034Z,99810
2018-06-04T13:57:06.884Z,99800
2018-06-04T13:59:35.718Z,99796
2018-06-04T14:02:04.557Z,99793
2018-06-04T14:04:33.397Z,99788
2018-06-04T14:07:02.232Z,99784
2018-06-04T14:09:31.068Z,99785
2018-06-04T14:11:59.921Z,99779
2018-06-04T14:14:28.778Z,99772
2018-06-04T14:16:58.353Z,99768
2018-06-04T14:19:27.777Z,99771
2018-06-04T14:21:57.393Z,99761
2018-06-04T14:24:26.235Z,99757
2018-06-04T14:26:55.069Z,99752
2018-06-04T14:29:24.655Z,99747
2018-06-04T14:31:53.498Z,99742
2018-06-04T14:34:22.342Z,99747
2018-06-04T14:36:51.186Z,99749
2018-06-04T14:39:20.013Z,99741
2018-06-04T14:41:48.859Z,99738
2018-06-04T14:44:17.728Z,99734
2018-06-04T14:46:47.292Z,99729
2018-06-04T14:49:16.144Z,99728
2018-06-04T14:51:44.969Z,99727
2018-06-04T14:54:13.804Z,99723
2018-06-04T14:56:42.648Z,99722
2018-06-04T14:59:12.217Z,99720
2018-06-04T15:01:41.041Z,99720
2018-06-04T15:04:09.876Z,99714
2018-06-04T15:06:38.701Z,99712
2018-06-04T15:09:07.549Z,99708
2018-06-04T15:11:36.396Z,99706
2018-06-04T15:14:05.221Z,99700
2018-06-04T15:16:35.057Z,99703
2018-06-04T15:19:03.643Z,99707
2018-06-04T15:21:32.471Z,99706
2018-06-04T15:24:01.316Z,99709
2018-06-04T15:26:30.150Z,99697
2018-06-04T15:28:58.981Z,99705
2018-06-04T15:31:27.850Z,99693
2018-06-04T15:33:57.433Z,99688
2018-06-04T15:36:26.923Z,99682
2018-06-04T15:38:55.178Z,99677
2018-06-04T15:41:24.014Z,99680
2018-06-04T15:43:52.911Z,99682
2018-06-04T15:46:21.697Z,99681
2018-06-04T15:48:51.282Z,99681
2018-06-04T15:51:20.125Z,99672
2018-06-04T15:53:48.977Z,99675
2018-06-04T15:56:17.806Z,99671
2018-06-04T15:58:46.637Z,99667
2018-06-04T16:01:15.472Z,99679
2018-06-04T16:03:44.337Z,99681
2018-06-04T16:06:13.446Z,99675
2018-06-04T16:08:43.018Z,99683
2018-06-04T16:11:11.852Z,99680
2018-06-04T16:13:40.682Z,99683
2018-06-04T16:16:09.516Z,99693
2018-06-04T16:18:38.364Z,99685
2018-06-04T16:21:07.214Z,99684
2018-06-04T16:23:36.774Z,99685
2018-06-04T16:26:05.616Z,99685
2018-06-04T16:28:34.453Z,99683
2018-06-04T16:31:03.287Z,99682
2018-06-04T16:33:32.126Z,99681
2018-06-04T16:36:00.968Z,99685
2018-06-04T16:38:29.815Z,99679
2018-06-04T16:40:58.642Z,99673
2018-06-04T16:43:27.563Z,99661
2018-06-04T16:45:57.112Z,99671
2018-06-04T16:48:26.710Z,99670
2018-06-04T16:50:55.551Z,99660
2018-06-04T16:53:24.390Z,99662
2018-06-04T16:55:53.976Z,99664
2018-06-04T16:58:23.050Z,99673
2018-06-04T17:00:51.896Z,99668
2018-06-04T17:03:20.738Z,99675
2018-06-04T17:05:49.572Z,99667
2018-06-04T17:08:19.187Z,99667
2018-06-04T17:10:48.311Z,99661
2018-06-04T17:13:17.160Z,99675
2018-06-04T17:15:45.990Z,99671
2018-06-04T17:18:14.829Z,99678
2018-06-04T17:20:43.656Z,99680
2018-06-04T17:23:12.497Z,99680
2018-06-04T17:25:41.316Z,99680
2018-06-04T17:28:10.204Z,99683
2018-06-04T17:30:38.992Z,99680
2018-06-04T17:33:07.875Z,99685
2018-06-04T17:35:36.673Z,99681
2018-06-04T17:38:05.506Z,99688
2018-06-04T17:40:34.337Z,99686
2018-06-04T17:43:03.922Z,99689
2018-06-04T17:45:33.355Z,99692
2018-06-04T17:48:02.930Z,99683
2018-06-04T17:50:31.780Z,99689
2018-06-04T17:53:00.627Z,99699
2018-06-04T17:55:29.464Z,99694
2018-06-04T17:57:58.324Z,99690
2018-06-04T18:00:27.178Z,99694
2018-06-04T18:02:56.026Z,99697
2018-06-04T18:05:24.872Z,99698
2018-06-04T18:07:54.452Z,99698
2018-06-04T18:10:23.300Z,99705
2018-06-04T18:12:52.148Z,99694
2018-06-04T18:15:20.996Z,99699
2018-06-04T18:17:49.835Z,99697
2018-06-04T18:20:19.418Z,99701
2018-06-04T18:22:48.251Z,99699
2018-06-04T18:25:17.115Z,99697
2018-06-04T18:27:45.951Z,99693
2018-06-04T18:30:14.805Z,99697
2018-06-04T18:32:44.381Z,99687
2018-06-04T18:35:13.222Z,99692
2018-06-04T18:37:42.042Z,99694
2018-06-04T18:40:10.883Z,99699
2018-06-04T18:42:40.479Z,99697
2018-06-04T18:45:09.330Z,99696
2018-06-04T18:47:38.188Z,99711
2018-06-04T18:50:07.033Z,99717
2018-06-04T18:52:36.456Z,99721
2018-06-04T18:55:04.529Z,99727
2018-06-04T18:57:34.237Z,99733
2018-06-04T19:00:03.083Z,99743
2018-06-04T19:02:31.912Z,99754
2018-06-04T19:05:01.493Z,99745
2018-06-04T19:07:30.320Z,99758
2018-06-04T19:09:59.169Z,99757
2018-06-04T19:12:28.005Z,99753
2018-06-04T19:14:56.919Z,99756
2018-06-04T19:17:25.685Z,99757
2018-06-04T19:19:54.529Z,99758
2018-06-04T19:22:23.375Z,99760
2018-06-04T19:24:52.215Z,99764
2018-06-04T19:27:21.982Z,99775
2018-06-04T19:29:50.841Z,99778
2018-06-04T19:32:19.688Z,99783
2018-06-04T19:34:48.517Z,99785
2018-06-04T19:37:17.349Z,99792
2018-06-04T19:39:46.188Z,99794
2018-06-04T19:42:15.029Z,99795
2018-06-04T19:44:43.875Z,99792
2018-06-04T19:47:12.734Z,99795
2018-06-04T19:49:41.586Z,99805
2018-06-04T19:52:10.432Z,99807
2018-06-04T19:54:40.045Z,99805
2018-06-04T19:57:08.918Z,99819
2018-06-04T19:59:38.491Z,99818
2018-06-04T20:02:07.331Z,99813
2018-06-04T20:04:36.166Z,99812
2018-06-04T20:07:05.005Z,99819
2018-06-04T20:09:33.862Z,99820
2018-06-04T20:12:02.691Z,99812
2018-06-04T20:14:31.526Z,99820
2018-06-04T20:17:00.369Z,99819
2018-06-04T20:19:29.214Z,99817
2018-06-04T20:21:58.041Z,99823
2018-06-04T20:24:26.870Z,99828
2018-06-04T20:26:55.705Z,99823
2018-06-04T20:29:25.312Z,99827
2018-06-04T20:31:54.906Z,99812
2018-06-04T20:34:23.849Z,99819
2018-06-04T20:36:52.588Z,99813
2018-06-04T20:39:22.164Z,99819
2018-06-04T20:41:51.007Z,99813
2018-06-04T20:44:19.847Z,99817
2018-06-04T20:46:48.692Z,99811
2018-06-04T20:49:18.263Z,99826
2018-06-04T20:51:47.839Z,99813
2018-06-04T20:54:16.667Z,99820
2018-06-04T20:56:46.253Z,99822
2018-06-04T20:59:15.092Z,99830
2018-06-04T21:01:43.923Z,99826
2018-06-04T21:04:12.761Z,99823
2018-06-04T21:06:41.594Z,99825
2018-06-04T21:09:10.460Z,99822
2018-06-04T21:11:39.287Z,99821
2018-06-04T21:14:08.117Z,99824
2018-06-04T21:16:36.957Z,99817
2018-06-04T21:19:05.790Z,99822
2018-06-04T21:21:34.614Z,99823
2018-06-04T21:24:03.453Z,99823
2018-06-04T21:26:33.038Z,99830
2018-06-04T21:29:01.877Z,99836
2018-06-04T21:31:30.724Z,99835
2018-06-04T21:33:59.571Z,99836
2018-06-04T21:36:28.401Z,99833
2018-06-04T21:38:57.245Z,99829
2018-06-04T21:41:26.103Z,99824
2018-06-04T21:43:56.023Z,99826
2018-06-04T21:46:25.606Z,99830
2018-06-04T21:48:54.450Z,99826
2018-06-04T21:51:23.294Z,99824
2018-06-04T21:53:52.139Z,99823
2018-06-04T21:56:20.978Z,99826
2018-06-04T21:58:49.805Z,99825
2018-06-04T22:01:18.649Z,99829
2018-06-04T22:03:47.519Z,99828
2018-06-04T22:06:16.950Z,99829
2018-06-04T22:08:46.518Z,99826
2018-06-04T22:11:15.352Z,99832
2018-06-04T22:13:44.197Z,99824
2018-06-04T22:16:13.042Z,99821
2018-06-04T22:18:41.880Z,99827
2018-06-04T22:21:10.712Z,99831
2018-06-04T22:23:39.589Z,99825
2018-06-04T22:26:08.422Z,99826
2018-06-04T22:28:37.257Z,99826
2018-06-04T22:31:06.848Z,99822
2018-06-04T22:36:16.177Z,99826
2018-06-04T22:38:45.014Z,99821
2018-06-04T22:41:14.581Z,99832
2018-06-04T22:43:43.412Z,99828
2018-06-04T22:46:12.994Z,99823
2018-06-04T22:48:41.843Z,99826
2018-06-04T22:51:10.683Z,99822
2018-06-04T22:53:39.531Z,99826
2018-06-04T22:56:08.370Z,99829
2018-06-04T22:58:37.949Z,99829
2018-06-04T23:01:06.781Z,99828
2018-06-04T23:03:35.617Z,99830
2018-06-04T23:06:04.470Z,99830
2018-06-04T23:08:33.306Z,99828
2018-06-04T23:11:02.153Z,99827
2018-06-04T23:13:30.988Z,99829
2018-06-04T23:16:00.416Z,99830
2018-06-04T23:18:29.990Z,99827
2018-06-04T23:20:58.824Z,99823
2018-06-04T23:23:27.657Z,99818
2018-06-04T23:25:56.496Z,99826
2018-06-04T23:28:25.347Z,99822
2018-06-04T23:30:54.175Z,99823
2018-06-04T23:33:23.050Z,99826
2018-06-04T23:35:52.643Z,99828
2018-06-04T23:38:21.486Z,99819
2018-06-04T23:40:50.314Z,99826
2018-06-04T23:43:19.158Z,99821
2018-06-04T23:45:48.002Z,99822
2018-06-04T23:48:17.417Z,99834
2018-06-04T23:50:46.984Z,99826
2018-06-04T23:53:15.809Z,99826
2018-06-04T23:55:45.382Z,99826
2018-06-04T23:58:14.219Z,99824
